sensor_id;sensor_type;location;lat;lon;timestamp;temperature;humidity
16064;DHT22;8136;53.172;8.256;2023-01-16T08:45:36;4.60;99.90
16064;DHT22;8136;53.172;8.256;2023-01-16T08:48:43;4.50;99.90
16064;DHT22;8136;53.172;8.256;2023-01-16T09:11:24;4.80;99.90
16064;DHT22;8136;53.172;8.256;2023-01-16T09:24:27;4.90;99.90
16064;DHT22;8136;53.172;8.256;2023-01-16T10:39:56;5.60;99.90
16064;DHT22;8136;53.172;8.256;2023-01-16T10:46:19;5.70;99.90
16064;DHT22;8136;53.172;8.256;2023-01-16T11:17:00;5.70;99.90
16064;DHT22;8136;53.172;8.256;2023-01-16T11:20:17;5.70;99.90
16064;DHT22;8136;53.172;8.256;2023-01-16T11:27:14;5.60;99.90
16064;DHT22;8136;53.172;8.256;2023-01-16T11:30:27;5.60;99.90
16064;DHT22;8136;53.172;8.256;2023-01-16T11:37:04;5.60;99.90
16064;DHT22;8136;53.172;8.256;2023-01-16T12:59:44;5.60;99.90
16064;DHT22;8136;53.172;8.256;2023-01-16T13:02:19;5.60;99.90
16064;DHT22;8136;53.172;8.256;2023-01-16T13:04:51;5.70;99.90
16064;DHT22;8136;53.172;8.256;2023-01-16T13:07:18;5.60;99.90
16064;DHT22;8136;53.172;8.256;2023-01-16T13:09:50;5.60;99.90
16064;DHT22;8136;53.172;8.256;2023-01-16T13:12:38;5.60;99.90
16064;DHT22;8136;53.172;8.256;2023-01-16T13:15:27;5.70;99.90
16064;DHT22;8136;53.172;8.256;2023-01-16T13:17:58;5.60;99.90
16064;DHT22;8136;53.172;8.256;2023-01-16T13:20:30;5.60;99.90
16064;DHT22;8136;53.172;8.256;2023-01-16T13:23:01;5.60;99.90
16064;DHT22;8136;53.172;8.256;2023-01-16T13:25:31;5.70;99.90
16064;DHT22;8136;53.172;8.256;2023-01-16T13:28:02;5.70;99.90
16064;DHT22;8136;53.172;8.256;2023-01-16T13:30:33;5.70;99.90
16064;DHT22;8136;53.172;8.256;2023-01-16T13:33:02;5.70;99.90
16064;DHT22;8136;53.172;8.256;2023-01-16T13:35:35;5.70;99.90
16064;DHT22;8136;53.172;8.256;2023-01-16T13:38:24;5.80;99.90
16064;DHT22;8136;53.172;8.256;2023-01-16T13:41:14;5.80;99.90
16064;DHT22;8136;53.172;8.256;2023-01-16T13:43:47;5.90;99.90
16064;DHT22;8136;53.172;8.256;2023-01-16T13:46:35;5.90;99.90
16064;DHT22;8136;53.172;8.256;2023-01-16T13:49:03;5.90;99.90
16064;DHT22;8136;53.172;8.256;2023-01-16T13:51:40;5.90;99.90
16064;DHT22;8136;53.172;8.256;2023-01-16T13:54:13;5.90;99.90
16064;DHT22;8136;53.172;8.256;2023-01-16T13:56:41;5.90;99.90
16064;DHT22;8136;53.172;8.256;2023-01-16T13:59:20;6.00;99.90
16064;DHT22;8136;53.172;8.256;2023-01-16T14:01:55;5.90;99.90
16064;DHT22;8136;53.172;8.256;2023-01-16T14:04:31;5.90;99.90
16064;DHT22;8136;53.172;8.256;2023-01-16T14:07:00;5.90;99.90
16064;DHT22;8136;53.172;8.256;2023-01-16T14:10:07;5.90;99.90
16064;DHT22;8136;53.172;8.256;2023-01-16T14:12:42;5.80;99.90
16064;DHT22;8136;53.172;8.256;2023-01-16T14:15:17;5.80;99.90
16064;DHT22;8136;53.172;8.256;2023-01-16T14:18:16;5.70;99.90
16064;DHT22;8136;53.172;8.256;2023-01-16T14:20:49;5.70;99.90
16064;DHT22;8136;53.172;8.256;2023-01-16T14:23:20;5.70;99.90
16064;DHT22;8136;53.172;8.256;2023-01-16T14:26:03;5.70;99.90
16064;DHT22;8136;53.172;8.256;2023-01-16T14:28:32;5.60;99.90
16064;DHT22;8136;53.172;8.256;2023-01-16T14:31:00;5.60;99.90
16064;DHT22;8136;53.172;8.256;2023-01-16T14:33:28;5.60;99.90
16064;DHT22;8136;53.172;8.256;2023-01-16T14:35:57;5.60;99.90
16064;DHT22;8136;53.172;8.256;2023-01-16T14:38:27;5.60;99.90
16064;DHT22;8136;53.172;8.256;2023-01-16T14:40:58;5.60;99.90
16064;DHT22;8136;53.172;8.256;2023-01-16T14:44:02;5.60;99.90
16064;DHT22;8136;53.172;8.256;2023-01-16T14:47:07;5.60;99.90
16064;DHT22;8136;53.172;8.256;2023-01-16T14:50:05;5.60;99.90
16064;DHT22;8136;53.172;8.256;2023-01-16T14:53:20;5.60;99.90
16064;DHT22;8136;53.172;8.256;2023-01-16T14:56:10;5.60;99.90
16064;DHT22;8136;53.172;8.256;2023-01-16T14:58:43;5.60;99.90
16064;DHT22;8136;53.172;8.256;2023-01-16T15:01:18;5.60;99.90
16064;DHT22;8136;53.172;8.256;2023-01-16T15:04:05;5.50;99.90
16064;DHT22;8136;53.172;8.256;2023-01-16T15:06:37;5.60;99.90
16064;DHT22;8136;53.172;8.256;2023-01-16T15:09:05;5.60;99.90
16064;DHT22;8136;53.172;8.256;2023-01-16T15:11:43;5.60;99.90
16064;DHT22;8136;53.172;8.256;2023-01-16T15:14:13;5.60;99.90
16064;DHT22;8136;53.172;8.256;2023-01-16T15:16:54;5.60;99.90
16064;DHT22;8136;53.172;8.256;2023-01-16T15:19:54;5.60;99.90
16064;DHT22;8136;53.172;8.256;2023-01-16T15:22:42;5.60;99.90
16064;DHT22;8136;53.172;8.256;2023-01-16T15:25:18;5.60;99.90
16064;DHT22;8136;53.172;8.256;2023-01-16T15:27:51;5.60;99.90
16064;DHT22;8136;53.172;8.256;2023-01-16T15:30:20;5.60;99.90
16064;DHT22;8136;53.172;8.256;2023-01-16T15:32:55;5.60;99.90
16064;DHT22;8136;53.172;8.256;2023-01-16T15:35:42;5.60;99.90
16064;DHT22;8136;53.172;8.256;2023-01-16T15:38:11;5.60;99.90
16064;DHT22;8136;53.172;8.256;2023-01-16T15:40:48;5.60;99.90
16064;DHT22;8136;53.172;8.256;2023-01-16T15:43:16;5.60;99.90
16064;DHT22;8136;53.172;8.256;2023-01-16T15:46:05;5.60;99.90
16064;DHT22;8136;53.172;8.256;2023-01-16T15:49:06;5.60;99.90
16064;DHT22;8136;53.172;8.256;2023-01-16T15:51:36;5.60;99.90
16064;DHT22;8136;53.172;8.256;2023-01-16T15:54:04;5.60;99.90
16064;DHT22;8136;53.172;8.256;2023-01-16T15:56:35;5.70;99.90
16064;DHT22;8136;53.172;8.256;2023-01-16T15:59:04;5.70;99.90
16064;DHT22;8136;53.172;8.256;2023-01-16T16:01:32;5.60;99.90
16064;DHT22;8136;53.172;8.256;2023-01-16T16:04:01;5.60;99.90
16064;DHT22;8136;53.172;8.256;2023-01-16T16:06:29;5.60;99.90
16064;DHT22;8136;53.172;8.256;2023-01-16T16:09:00;5.60;99.90
16064;DHT22;8136;53.172;8.256;2023-01-16T16:11:31;5.60;99.90
16064;DHT22;8136;53.172;8.256;2023-01-16T16:14:20;5.60;99.90
16064;DHT22;8136;53.172;8.256;2023-01-16T16:17:17;5.60;99.90
16064;DHT22;8136;53.172;8.256;2023-01-16T16:20:23;5.60;99.90
16064;DHT22;8136;53.172;8.256;2023-01-16T16:22:50;5.50;99.90
16064;DHT22;8136;53.172;8.256;2023-01-16T16:25:20;5.50;99.90
16064;DHT22;8136;53.172;8.256;2023-01-16T16:27:50;5.50;99.90
16064;DHT22;8136;53.172;8.256;2023-01-16T16:30:21;5.50;99.90
16064;DHT22;8136;53.172;8.256;2023-01-16T16:32:49;5.50;99.90
16064;DHT22;8136;53.172;8.256;2023-01-16T16:35:18;5.50;99.90
16064;DHT22;8136;53.172;8.256;2023-01-16T16:37:46;5.50;99.90
16064;DHT22;8136;53.172;8.256;2023-01-16T16:40:15;5.50;99.90
16064;DHT22;8136;53.172;8.256;2023-01-16T16:42:50;5.50;99.90
16064;DHT22;8136;53.172;8.256;2023-01-16T16:45:31;5.50;99.90
16064;DHT22;8136;53.172;8.256;2023-01-16T16:48:26;5.50;99.90
16064;DHT22;8136;53.172;8.256;2023-01-16T16:51:10;5.60;99.90
16064;DHT22;8136;53.172;8.256;2023-01-16T16:53:44;5.50;99.90
16064;DHT22;8136;53.172;8.256;2023-01-16T16:56:13;5.60;99.90
16064;DHT22;8136;53.172;8.256;2023-01-16T16:58:43;5.60;99.90
16064;DHT22;8136;53.172;8.256;2023-01-16T17:01:13;5.60;99.90
16064;DHT22;8136;53.172;8.256;2023-01-16T17:03:41;5.60;99.90
16064;DHT22;8136;53.172;8.256;2023-01-16T17:06:15;5.60;99.90
16064;DHT22;8136;53.172;8.256;2023-01-16T17:08:42;5.60;99.90
16064;DHT22;8136;53.172;8.256;2023-01-16T17:11:10;5.60;99.90
16064;DHT22;8136;53.172;8.256;2023-01-16T17:13:37;5.60;99.90
16064;DHT22;8136;53.172;8.256;2023-01-16T17:16:13;5.60;99.90
16064;DHT22;8136;53.172;8.256;2023-01-16T17:18:41;5.60;99.90
16064;DHT22;8136;53.172;8.256;2023-01-16T17:21:09;5.70;99.90
16064;DHT22;8136;53.172;8.256;2023-01-16T17:23:41;5.70;99.90
16064;DHT22;8136;53.172;8.256;2023-01-16T17:26:08;5.60;99.90
16064;DHT22;8136;53.172;8.256;2023-01-16T17:28:37;5.60;99.90
16064;DHT22;8136;53.172;8.256;2023-01-16T17:31:07;5.60;99.90
16064;DHT22;8136;53.172;8.256;2023-01-16T17:33:36;5.60;99.90
16064;DHT22;8136;53.172;8.256;2023-01-16T17:36:03;5.60;99.90
16064;DHT22;8136;53.172;8.256;2023-01-16T17:38:37;5.50;99.90
16064;DHT22;8136;53.172;8.256;2023-01-16T17:41:05;5.40;99.90
16064;DHT22;8136;53.172;8.256;2023-01-16T17:43:32;5.40;99.90
16064;DHT22;8136;53.172;8.256;2023-01-16T17:46:19;5.30;99.90
16064;DHT22;8136;53.172;8.256;2023-01-16T17:48:49;5.30;99.90
16064;DHT22;8136;53.172;8.256;2023-01-16T17:51:16;5.30;99.90
16064;DHT22;8136;53.172;8.256;2023-01-16T17:53:47;5.20;99.90
16064;DHT22;8136;53.172;8.256;2023-01-16T17:56:14;5.30;99.90
16064;DHT22;8136;53.172;8.256;2023-01-16T17:58:42;5.20;99.90
16064;DHT22;8136;53.172;8.256;2023-01-16T18:01:18;5.20;99.90
16064;DHT22;8136;53.172;8.256;2023-01-16T18:03:46;5.20;99.90
16064;DHT22;8136;53.172;8.256;2023-01-16T18:06:15;5.20;99.90
16064;DHT22;8136;53.172;8.256;2023-01-16T18:08:42;5.20;99.90
16064;DHT22;8136;53.172;8.256;2023-01-16T18:11:09;5.30;99.90
16064;DHT22;8136;53.172;8.256;2023-01-16T18:13:53;5.30;99.90
16064;DHT22;8136;53.172;8.256;2023-01-16T18:16:39;5.30;99.90
16064;DHT22;8136;53.172;8.256;2023-01-16T18:19:23;5.30;99.90
16064;DHT22;8136;53.172;8.256;2023-01-16T19:19:08;5.20;99.90
16064;DHT22;8136;53.172;8.256;2023-01-16T19:21:34;5.20;99.90
16064;DHT22;8136;53.172;8.256;2023-01-16T19:24:04;5.20;99.90
16064;DHT22;8136;53.172;8.256;2023-01-16T19:26:32;5.20;99.90
16064;DHT22;8136;53.172;8.256;2023-01-16T19:28:59;5.30;99.90
16064;DHT22;8136;53.172;8.256;2023-01-16T19:31:27;5.30;99.90
16064;DHT22;8136;53.172;8.256;2023-01-16T19:33:54;5.20;99.90
16064;DHT22;8136;53.172;8.256;2023-01-16T19:36:26;5.20;99.90
16064;DHT22;8136;53.172;8.256;2023-01-16T19:38:53;5.20;99.90
16064;DHT22;8136;53.172;8.256;2023-01-16T19:41:22;5.20;99.90
16064;DHT22;8136;53.172;8.256;2023-01-16T19:44:03;5.20;99.90
16064;DHT22;8136;53.172;8.256;2023-01-16T19:46:57;5.10;99.90
16064;DHT22;8136;53.172;8.256;2023-01-16T19:49:24;5.10;99.90
16064;DHT22;8136;53.172;8.256;2023-01-16T19:51:53;5.10;99.90
16064;DHT22;8136;53.172;8.256;2023-01-16T19:54:24;5.10;99.90
16064;DHT22;8136;53.172;8.256;2023-01-16T19:56:51;5.20;99.90
16064;DHT22;8136;53.172;8.256;2023-01-16T19:59:18;5.20;99.90
16064;DHT22;8136;53.172;8.256;2023-01-16T20:01:53;5.20;99.90
16064;DHT22;8136;53.172;8.256;2023-01-16T22:21:26;4.70;99.90
16064;DHT22;8136;53.172;8.256;2023-01-16T22:23:10;4.70;99.90
16064;DHT22;8136;53.172;8.256;2023-01-16T22:26:53;4.80;99.90
16064;DHT22;8136;53.172;8.256;2023-01-16T22:29:38;4.80;99.90
16064;DHT22;8136;53.172;8.256;2023-01-16T23:13:39;4.70;99.90
